sensor_id;sensor_type;location;lat;lon;timestamp;pressure;altitude;pressure_sealevel;temperature;humidity
42247;BME280;27913;42.722;23.268;2022-12-11T00:02:19;92946.53;;;10.14;100.00
42247;BME280;27913;42.722;23.268;2022-12-11T00:04:44;92948.22;;;10.21;100.00
42247;BME280;27913;42.722;23.268;2022-12-11T00:07:10;92945.69;;;10.26;100.00
42247;BME280;27913;42.722;23.268;2022-12-11T00:09:36;92915.28;;;10.01;100.00
42247;BME280;27913;42.722;23.268;2022-12-11T00:12:01;92964.50;;;10.35;100.00
42247;BME280;27913;42.722;23.268;2022-12-11T00:14:28;92933.25;;;10.38;100.00
42247;BME280;27913;42.722;23.268;2022-12-11T00:16:54;92900.22;;;10.25;100.00
42247;BME280;27913;42.722;23.268;2022-12-11T00:19:19;92990.75;;;10.06;100.00
42247;BME280;27913;42.722;23.268;2022-12-11T00:21:45;92920.97;;;10.10;100.00
42247;BME280;27913;42.722;23.268;2022-12-11T00:24:11;92822.38;;;8.66;100.00
42247;BME280;27913;42.722;23.268;2022-12-11T00:26:37;92807.91;;;8.88;100.00
42247;BME280;27913;42.722;23.268;2022-12-11T00:29:03;92931.78;;;9.84;100.00
42247;BME280;27913;42.722;23.268;2022-12-11T00:31:28;92785.25;;;8.69;100.00
42247;BME280;27913;42.722;23.268;2022-12-11T00:33:54;92923.75;;;9.62;100.00
42247;BME280;27913;42.722;23.268;2022-12-11T00:36:23;92917.88;;;9.84;100.00
42247;BME280;27913;42.722;23.268;2022-12-11T00:38:49;92970.25;;;9.90;100.00
42247;BME280;27913;42.722;23.268;2022-12-11T00:41:15;92708.81;;;8.73;100.00
42247;BME280;27913;42.722;23.268;2022-12-11T00:43:41;92931.00;;;9.72;100.00
42247;BME280;27913;42.722;23.268;2022-12-11T00:46:08;92928.28;;;9.78;100.00
42247;BME280;27913;42.722;23.268;2022-12-11T00:48:33;92893.34;;;9.78;100.00
42247;BME280;27913;42.722;23.268;2022-12-11T00:50:59;92714.63;;;8.39;100.00
42247;BME280;27913;42.722;23.268;2022-12-11T00:53:25;92902.56;;;9.81;100.00
42247;BME280;27913;42.722;23.268;2022-12-11T00:55:50;92917.81;;;9.54;100.00
42247;BME280;27913;42.722;23.268;2022-12-11T00:58:16;92896.06;;;9.83;100.00
42247;BME280;27913;42.722;23.268;2022-12-11T01:00:42;92740.72;;;8.69;100.00
42247;BME280;27913;42.722;23.268;2022-12-11T01:03:12;92842.34;;;9.45;100.00
42247;BME280;27913;42.722;23.268;2022-12-11T01:05:38;92902.06;;;9.54;100.00
42247;BME280;27913;42.722;23.268;2022-12-11T01:08:05;92835.31;;;9.62;100.00
42247;BME280;27913;42.722;23.268;2022-12-11T01:10:31;92876.75;;;9.60;100.00
42247;BME280;27913;42.722;23.268;2022-12-11T01:12:59;92863.84;;;9.59;100.00
42247;BME280;27913;42.722;23.268;2022-12-11T01:15:28;92883.56;;;9.73;100.00
42247;BME280;27913;42.722;23.268;2022-12-11T01:17:54;92861.50;;;9.74;100.00
42247;BME280;27913;42.722;23.268;2022-12-11T01:20:21;92923.66;;;9.98;100.00
42247;BME280;27913;42.722;23.268;2022-12-11T01:22:49;92941.25;;;10.14;100.00
42247;BME280;27913;42.722;23.268;2022-12-11T01:25:15;92918.91;;;10.12;100.00
42247;BME280;27913;42.722;23.268;2022-12-11T01:27:41;92844.13;;;9.85;100.00
42247;BME280;27913;42.722;23.268;2022-12-11T01:30:07;92882.78;;;9.90;100.00
42247;BME280;27913;42.722;23.268;2022-12-11T01:32:34;92853.44;;;9.93;100.00
42247;BME280;27913;42.722;23.268;2022-12-11T01:35:03;92834.56;;;9.79;100.00
42247;BME280;27913;42.722;23.268;2022-12-11T01:37:29;92859.06;;;9.85;100.00
42247;BME280;27913;42.722;23.268;2022-12-11T01:39:55;92931.09;;;10.18;100.00
42247;BME280;27913;42.722;23.268;2022-12-11T01:42:20;92877.59;;;9.78;100.00
42247;BME280;27913;42.722;23.268;2022-12-11T01:47:11;92851.59;;;9.76;100.00
42247;BME280;27913;42.722;23.268;2022-12-11T01:49:38;92859.25;;;9.95;100.00
42247;BME280;27913;42.722;23.268;2022-12-11T01:52:14;92823.72;;;10.22;100.00
42247;BME280;27913;42.722;23.268;2022-12-11T01:54:41;92850.41;;;10.65;100.00
42247;BME280;27913;42.722;23.268;2022-12-11T01:57:09;92873.47;;;11.15;100.00
42247;BME280;27913;42.722;23.268;2022-12-11T01:59:38;92780.31;;;10.71;100.00
42247;BME280;27913;42.722;23.268;2022-12-11T02:02:20;92844.19;;;11.51;100.00
42247;BME280;27913;42.722;23.268;2022-12-11T02:04:47;92858.41;;;11.55;100.00
42247;BME280;27913;42.722;23.268;2022-12-11T02:07:14;92875.81;;;11.56;100.00
42247;BME280;27913;42.722;23.268;2022-12-11T02:09:41;92877.72;;;11.60;98.78
42247;BME280;27913;42.722;23.268;2022-12-11T02:12:25;92889.56;;;11.63;98.16
42247;BME280;27913;42.722;23.268;2022-12-11T02:18:12;92847.59;;;11.51;98.69
42247;BME280;27913;42.722;23.268;2022-12-11T02:20:46;92844.28;;;11.61;97.17
42247;BME280;27913;42.722;23.268;2022-12-11T02:28:46;92801.63;;;11.59;93.90
42247;BME280;27913;42.722;23.268;2022-12-11T02:31:21;92804.47;;;11.80;92.61
42247;BME280;27913;42.722;23.268;2022-12-11T02:36:40;92795.38;;;11.93;92.55
42247;BME280;27913;42.722;23.268;2022-12-11T02:39:08;92829.31;;;12.17;94.24
42247;BME280;27913;42.722;23.268;2022-12-11T02:41:35;92828.06;;;12.25;96.21
42247;BME280;27913;42.722;23.268;2022-12-11T02:44:02;92832.25;;;12.20;96.94
42247;BME280;27913;42.722;23.268;2022-12-11T02:46:30;92786.06;;;11.85;97.75
42247;BME280;27913;42.722;23.268;2022-12-11T02:48:58;92862.66;;;12.34;98.00
42247;BME280;27913;42.722;23.268;2022-12-11T02:51:29;92861.63;;;12.35;98.32
42247;BME280;27913;42.722;23.268;2022-12-11T02:53:58;92807.47;;;11.94;97.39
42247;BME280;27913;42.722;23.268;2022-12-11T02:56:57;92842.44;;;12.12;97.52
42247;BME280;27913;42.722;23.268;2022-12-11T02:59:44;92871.16;;;12.41;95.56
42247;BME280;27913;42.722;23.268;2022-12-11T03:02:11;92863.25;;;12.41;95.59
42247;BME280;27913;42.722;23.268;2022-12-11T03:04:37;92851.13;;;12.40;95.40
42247;BME280;27913;42.722;23.268;2022-12-11T03:07:11;92856.69;;;12.43;95.60
42247;BME280;27913;42.722;23.268;2022-12-11T03:09:39;92843.72;;;12.37;94.39
42247;BME280;27913;42.722;23.268;2022-12-11T03:12:08;92866.22;;;12.50;94.80
42247;BME280;27913;42.722;23.268;2022-12-11T03:14:35;92843.75;;;12.42;95.00
42247;BME280;27913;42.722;23.268;2022-12-11T03:17:22;92854.16;;;12.59;95.74
42247;BME280;27913;42.722;23.268;2022-12-11T03:25:09;92814.41;;;12.28;96.44
42247;BME280;27913;42.722;23.268;2022-12-11T03:28:40;92758.94;;;12.12;95.71
42247;BME280;27913;42.722;23.268;2022-12-11T03:30:47;92831.97;;;12.55;96.22
42247;BME280;27913;42.722;23.268;2022-12-11T03:33:22;92854.84;;;12.82;95.14
42247;BME280;27913;42.722;23.268;2022-12-11T03:35:54;92841.41;;;12.84;95.10
42247;BME280;27913;42.722;23.268;2022-12-11T03:41:00;92911.53;;;12.79;95.37
42247;BME280;27913;42.722;23.268;2022-12-11T03:43:28;92902.09;;;12.84;95.02
42247;BME280;27913;42.722;23.268;2022-12-11T03:45:57;92909.19;;;12.83;95.32
42247;BME280;27913;42.722;23.268;2022-12-11T03:48:27;92888.78;;;12.68;95.90
42247;BME280;27913;42.722;23.268;2022-12-11T03:50:56;92907.84;;;12.75;95.44
42247;BME280;27913;42.722;23.268;2022-12-11T03:53:25;92913.72;;;12.88;95.45
42247;BME280;27913;42.722;23.268;2022-12-11T03:55:51;92904.91;;;12.72;95.15
42247;BME280;27913;42.722;23.268;2022-12-11T03:58:18;92927.66;;;12.83;95.27
42247;BME280;27913;42.722;23.268;2022-12-11T04:00:44;92926.81;;;12.77;96.26
42247;BME280;27913;42.722;23.268;2022-12-11T04:03:09;92910.88;;;12.62;96.60
42247;BME280;27913;42.722;23.268;2022-12-11T04:05:44;92919.88;;;12.66;96.34
42247;BME280;27913;42.722;23.268;2022-12-11T04:08:09;92853.03;;;12.17;96.51
42247;BME280;27913;42.722;23.268;2022-12-11T04:10:35;92960.78;;;12.68;97.30
42247;BME280;27913;42.722;23.268;2022-12-11T04:13:01;92961.84;;;12.73;95.63
42247;BME280;27913;42.722;23.268;2022-12-11T04:15:26;92967.88;;;12.68;94.67
42247;BME280;27913;42.722;23.268;2022-12-11T04:17:52;92956.94;;;12.54;89.87
42247;BME280;27913;42.722;23.268;2022-12-11T04:20:36;92968.41;;;12.65;90.93
42247;BME280;27913;42.722;23.268;2022-12-11T04:23:20;93002.34;;;12.89;93.31
42247;BME280;27913;42.722;23.268;2022-12-11T04:26:10;93005.81;;;12.89;93.59
42247;BME280;27913;42.722;23.268;2022-12-11T04:28:37;92998.41;;;12.91;92.61
42247;BME280;27913;42.722;23.268;2022-12-11T04:31:02;93001.59;;;12.93;93.08
42247;BME280;27913;42.722;23.268;2022-12-11T04:33:28;92973.38;;;12.61;93.83
42247;BME280;27913;42.722;23.268;2022-12-11T04:35:56;92933.84;;;12.39;94.26
42247;BME280;27913;42.722;23.268;2022-12-11T04:38:22;92967.19;;;12.50;94.75
42247;BME280;27913;42.722;23.268;2022-12-11T04:40:47;92992.59;;;12.62;94.80
42247;BME280;27913;42.722;23.268;2022-12-11T04:43:13;92986.56;;;12.61;93.70
42247;BME280;27913;42.722;23.268;2022-12-11T04:45:38;93020.97;;;12.77;93.93
42247;BME280;27913;42.722;23.268;2022-12-11T04:48:04;93025.69;;;12.75;93.21
42247;BME280;27913;42.722;23.268;2022-12-11T04:50:30;93021.97;;;12.71;93.10
42247;BME280;27913;42.722;23.268;2022-12-11T04:52:56;93031.53;;;12.77;91.56
42247;BME280;27913;42.722;23.268;2022-12-11T04:55:22;93026.81;;;12.79;90.79
42247;BME280;27913;42.722;23.268;2022-12-11T04:57:47;92999.53;;;12.68;89.83
42247;BME280;27913;42.722;23.268;2022-12-11T05:00:13;93028.91;;;12.77;89.70
42247;BME280;27913;42.722;23.268;2022-12-11T05:02:40;93017.28;;;12.78;89.07
42247;BME280;27913;42.722;23.268;2022-12-11T05:05:08;92989.72;;;12.63;87.99
42247;BME280;27913;42.722;23.268;2022-12-11T05:07:35;92986.41;;;12.73;87.23
42247;BME280;27913;42.722;23.268;2022-12-11T05:10:00;92985.94;;;12.82;87.27
42247;BME280;27913;42.722;23.268;2022-12-11T05:12:26;93009.41;;;12.83;87.28
42247;BME280;27913;42.722;23.268;2022-12-11T05:14:53;93007.84;;;12.82;87.55
42247;BME280;27913;42.722;23.268;2022-12-11T05:17:19;92966.19;;;12.56;88.05
42247;BME280;27913;42.722;23.268;2022-12-11T05:19:49;92972.81;;;12.59;88.39
42247;BME280;27913;42.722;23.268;2022-12-11T05:22:16;93000.19;;;12.80;89.12
42247;BME280;27913;42.722;23.268;2022-12-11T05:24:43;92989.06;;;12.78;89.58
42247;BME280;27913;42.722;23.268;2022-12-11T05:27:09;92966.53;;;12.65;90.06
42247;BME280;27913;42.722;23.268;2022-12-11T05:29:35;92986.69;;;12.77;89.91
42247;BME280;27913;42.722;23.268;2022-12-11T05:32:01;92991.97;;;12.77;90.46
42247;BME280;27913;42.722;23.268;2022-12-11T05:34:27;92989.59;;;12.75;90.36
42247;BME280;27913;42.722;23.268;2022-12-11T05:36:52;92980.97;;;12.58;90.84
42247;BME280;27913;42.722;23.268;2022-12-11T05:39:18;93012.78;;;12.73;90.92
42247;BME280;27913;42.722;23.268;2022-12-11T05:41:44;93010.94;;;12.74;91.28
42247;BME280;27913;42.722;23.268;2022-12-11T05:44:12;92966.59;;;12.43;91.24
42247;BME280;27913;42.722;23.268;2022-12-11T05:46:38;92987.22;;;12.51;91.38
42247;BME280;27913;42.722;23.268;2022-12-11T05:49:04;92933.91;;;12.16;91.69
42247;BME280;27913;42.722;23.268;2022-12-11T05:51:30;92981.75;;;12.58;91.25
42247;BME280;27913;42.722;23.268;2022-12-11T05:53:58;92966.34;;;12.44;91.44
42247;BME280;27913;42.722;23.268;2022-12-11T05:56:26;92990.22;;;12.60;91.85
42247;BME280;27913;42.722;23.268;2022-12-11T05:58:53;93000.38;;;12.74;92.26
42247;BME280;27913;42.722;23.268;2022-12-11T06:01:20;92977.59;;;12.62;92.09
42247;BME280;27913;42.722;23.268;2022-12-11T06:03:46;92942.91;;;12.48;91.39
42247;BME280;27913;42.722;23.268;2022-12-11T06:06:13;93000.97;;;12.81;91.15
42247;BME280;27913;42.722;23.268;2022-12-11T06:08:38;92984.84;;;12.77;91.36
42247;BME280;27913;42.722;23.268;2022-12-11T06:11:04;92924.66;;;12.41;90.20
42247;BME280;27913;42.722;23.268;2022-12-11T06:13:30;92971.59;;;12.72;89.27
42247;BME280;27913;42.722;23.268;2022-12-11T06:16:03;92996.53;;;12.87;89.30
42247;BME280;27913;42.722;23.268;2022-12-11T06:18:29;93005.50;;;12.86;89.88
42247;BME280;27913;42.722;23.268;2022-12-11T06:20:55;92972.31;;;12.62;90.05
42247;BME280;27913;42.722;23.268;2022-12-11T06:23:20;93008.13;;;12.86;90.33
42247;BME280;27913;42.722;23.268;2022-12-11T06:25:46;92984.75;;;12.67;90.78
42247;BME280;27913;42.722;23.268;2022-12-11T06:28:11;93022.16;;;12.91;90.27
42247;BME280;27913;42.722;23.268;2022-12-11T06:30:37;93014.19;;;12.86;90.94
42247;BME280;27913;42.722;23.268;2022-12-11T06:33:03;92985.34;;;12.74;91.93
42247;BME280;27913;42.722;23.268;2022-12-11T06:35:28;93022.91;;;12.87;92.24
42247;BME280;27913;42.722;23.268;2022-12-11T06:37:54;93028.28;;;12.97;92.53
42247;BME280;27913;42.722;23.268;2022-12-11T06:40:20;93039.88;;;12.96;93.53
42247;BME280;27913;42.722;23.268;2022-12-11T06:42:45;93036.69;;;12.94;93.41
42247;BME280;27913;42.722;23.268;2022-12-11T06:45:11;93029.03;;;12.92;93.59
42247;BME280;27913;42.722;23.268;2022-12-11T06:47:36;93019.75;;;12.90;93.44
42247;BME280;27913;42.722;23.268;2022-12-11T06:50:03;93024.31;;;12.95;90.05
42247;BME280;27913;42.722;23.268;2022-12-11T06:52:28;92982.94;;;12.73;84.85
42247;BME280;27913;42.722;23.268;2022-12-11T06:54:54;93024.69;;;13.09;86.89
42247;BME280;27913;42.722;23.268;2022-12-11T06:57:20;93008.91;;;13.14;86.63
42247;BME280;27913;42.722;23.268;2022-12-11T06:59:45;93024.00;;;13.24;86.83
42247;BME280;27913;42.722;23.268;2022-12-11T07:02:15;93035.66;;;13.28;86.46
42247;BME280;27913;42.722;23.268;2022-12-11T07:04:42;93024.84;;;13.29;87.26
42247;BME280;27913;42.722;23.268;2022-12-11T07:07:08;93049.34;;;13.25;88.60
42247;BME280;27913;42.722;23.268;2022-12-11T07:09:36;93041.69;;;13.23;88.45
42247;BME280;27913;42.722;23.268;2022-12-11T07:12:02;93052.25;;;13.23;87.16
42247;BME280;27913;42.722;23.268;2022-12-11T07:14:29;93021.16;;;13.31;100.00
42247;BME280;27913;42.722;23.268;2022-12-11T07:16:55;93067.22;;;13.83;90.03
42247;BME280;27913;42.722;23.268;2022-12-11T07:19:21;92999.56;;;13.39;86.75
42247;BME280;27913;42.722;23.268;2022-12-11T07:21:47;93063.66;;;13.62;87.11
42247;BME280;27913;42.722;23.268;2022-12-11T07:24:12;92984.81;;;13.05;86.98
42247;BME280;27913;42.722;23.268;2022-12-11T07:26:38;93070.91;;;13.49;86.72
42247;BME280;27913;42.722;23.268;2022-12-11T07:29:03;93070.63;;;13.40;88.17
42247;BME280;27913;42.722;23.268;2022-12-11T07:31:29;93079.00;;;13.37;88.03
42247;BME280;27913;42.722;23.268;2022-12-11T07:34:00;93084.59;;;13.41;87.75
42247;BME280;27913;42.722;23.268;2022-12-11T07:36:27;93077.72;;;13.40;87.76
42247;BME280;27913;42.722;23.268;2022-12-11T07:38:53;93078.41;;;13.30;87.93
42247;BME280;27913;42.722;23.268;2022-12-11T07:41:18;93096.16;;;13.35;87.80
42247;BME280;27913;42.722;23.268;2022-12-11T07:43:44;93085.34;;;13.36;88.08
42247;BME280;27913;42.722;23.268;2022-12-11T07:46:13;93088.53;;;13.38;88.33
42247;BME280;27913;42.722;23.268;2022-12-11T07:48:40;93019.25;;;12.88;88.37
42247;BME280;27913;42.722;23.268;2022-12-11T07:51:08;93049.00;;;13.16;88.13
42247;BME280;27913;42.722;23.268;2022-12-11T07:53:33;93061.19;;;13.17;87.21
42247;BME280;27913;42.722;23.268;2022-12-11T07:55:59;93054.28;;;13.16;87.80
42247;BME280;27913;42.722;23.268;2022-12-11T07:58:24;93116.06;;;13.48;87.55
42247;BME280;27913;42.722;23.268;2022-12-11T08:00:50;93127.75;;;13.52;85.77
42247;BME280;27913;42.722;23.268;2022-12-11T08:03:16;93026.31;;;13.15;84.81
42247;BME280;27913;42.722;23.268;2022-12-11T08:05:47;93082.47;;;13.38;85.56
42247;BME280;27913;42.722;23.268;2022-12-11T08:08:13;93066.06;;;13.36;86.95
42247;BME280;27913;42.722;23.268;2022-12-11T08:10:39;93091.25;;;13.49;87.13
42247;BME280;27913;42.722;23.268;2022-12-11T08:13:04;93101.13;;;13.59;87.59
42247;BME280;27913;42.722;23.268;2022-12-11T08:15:30;93090.84;;;13.62;86.40
42247;BME280;27913;42.722;23.268;2022-12-11T08:17:55;93089.53;;;13.60;87.16
42247;BME280;27913;42.722;23.268;2022-12-11T08:20:21;93098.19;;;13.55;88.28
42247;BME280;27913;42.722;23.268;2022-12-11T08:22:46;93100.84;;;13.55;84.93
42247;BME280;27913;42.722;23.268;2022-12-11T08:25:11;93096.09;;;13.57;84.51
42247;BME280;27913;42.722;23.268;2022-12-11T08:27:37;93087.94;;;13.59;85.01
42247;BME280;27913;42.722;23.268;2022-12-11T08:30:03;93106.84;;;13.50;86.49
42247;BME280;27913;42.722;23.268;2022-12-11T08:32:28;93084.94;;;13.50;83.08
42247;BME280;27913;42.722;23.268;2022-12-11T08:34:54;93093.50;;;13.62;81.27
42247;BME280;27913;42.722;23.268;2022-12-11T08:37:19;93093.25;;;13.64;82.00
42247;BME280;27913;42.722;23.268;2022-12-11T08:39:45;93052.28;;;13.56;82.95
42247;BME280;27913;42.722;23.268;2022-12-11T08:42:11;93087.50;;;13.72;84.49
42247;BME280;27913;42.722;23.268;2022-12-11T08:44:36;93042.34;;;13.41;85.92
42247;BME280;27913;42.722;23.268;2022-12-11T08:47:02;93086.94;;;13.65;86.79
42247;BME280;27913;42.722;23.268;2022-12-11T08:49:27;93082.44;;;13.65;88.29
42247;BME280;27913;42.722;23.268;2022-12-11T08:51:53;92992.72;;;13.05;89.47
42247;BME280;27913;42.722;23.268;2022-12-11T08:54:18;93038.56;;;13.26;91.01
42247;BME280;27913;42.722;23.268;2022-12-11T08:56:44;92971.69;;;12.83;91.54
42247;BME280;27913;42.722;23.268;2022-12-11T08:59:10;93046.81;;;13.35;91.99
42247;BME280;27913;42.722;23.268;2022-12-11T09:01:35;93046.53;;;13.32;92.37
42247;BME280;27913;42.722;23.268;2022-12-11T09:04:01;92978.09;;;12.92;91.75
42247;BME280;27913;42.722;23.268;2022-12-11T09:06:28;92959.34;;;12.88;92.19
42247;BME280;27913;42.722;23.268;2022-12-11T09:08:54;93030.22;;;13.40;91.58
42247;BME280;27913;42.722;23.268;2022-12-11T09:11:22;93041.06;;;13.44;91.37
42247;BME280;27913;42.722;23.268;2022-12-11T09:13:48;93018.84;;;13.39;90.88
42247;BME280;27913;42.722;23.268;2022-12-11T09:16:16;93040.69;;;13.62;90.58
42247;BME280;27913;42.722;23.268;2022-12-11T09:18:44;93008.97;;;13.57;90.16
42247;BME280;27913;42.722;23.268;2022-12-11T09:21:12;92977.97;;;13.42;89.56
42247;BME280;27913;42.722;23.268;2022-12-11T09:23:39;93038.72;;;13.85;88.20
42247;BME280;27913;42.722;23.268;2022-12-11T09:26:09;93030.56;;;13.92;86.42
42247;BME280;27913;42.722;23.268;2022-12-11T09:28:38;93036.41;;;13.99;85.65
42247;BME280;27913;42.722;23.268;2022-12-11T09:31:19;93009.94;;;13.89;83.91
42247;BME280;27913;42.722;23.268;2022-12-11T09:33:45;93032.22;;;14.04;84.58
42247;BME280;27913;42.722;23.268;2022-12-11T09:36:11;92996.47;;;13.91;83.94
42247;BME280;27913;42.722;23.268;2022-12-11T09:38:37;92985.03;;;13.80;84.34
42247;BME280;27913;42.722;23.268;2022-12-11T09:46:34;92976.88;;;13.86;82.35
42247;BME280;27913;42.722;23.268;2022-12-11T09:49:02;93035.53;;;14.37;82.07
42247;BME280;27913;42.722;23.268;2022-12-11T09:51:44;93042.13;;;14.40;81.07
42247;BME280;27913;42.722;23.268;2022-12-11T09:54:12;93036.31;;;14.43;81.01
42247;BME280;27913;42.722;23.268;2022-12-11T09:57:28;93002.69;;;14.28;81.21
42247;BME280;27913;42.722;23.268;2022-12-11T10:02:24;93037.16;;;14.54;80.31
42247;BME280;27913;42.722;23.268;2022-12-11T10:05:10;93003.25;;;14.35;81.02
42247;BME280;27913;42.722;23.268;2022-12-11T10:07:47;93042.47;;;14.59;80.80
42247;BME280;27913;42.722;23.268;2022-12-11T10:10:42;93036.63;;;14.62;81.84
42247;BME280;27913;42.722;23.268;2022-12-11T10:15:56;92982.84;;;14.25;80.68
42247;BME280;27913;42.722;23.268;2022-12-11T10:18:25;93042.47;;;14.59;78.80
42247;BME280;27913;42.722;23.268;2022-12-11T10:20:52;92981.75;;;14.10;79.36
42247;BME280;27913;42.722;23.268;2022-12-11T10:23:29;93038.19;;;14.47;79.28
42247;BME280;27913;42.722;23.268;2022-12-11T10:26:20;92972.97;;;13.94;79.98
42247;BME280;27913;42.722;23.268;2022-12-11T10:28:46;93039.47;;;14.34;79.69
42247;BME280;27913;42.722;23.268;2022-12-11T10:34:14;93034.41;;;14.28;80.35
42247;BME280;27913;42.722;23.268;2022-12-11T10:36:45;93040.78;;;14.27;80.74
42247;BME280;27913;42.722;23.268;2022-12-11T10:39:20;93028.56;;;14.20;81.04
42247;BME280;27913;42.722;23.268;2022-12-11T10:41:51;92993.06;;;14.00;80.11
42247;BME280;27913;42.722;23.268;2022-12-11T10:44:20;93039.72;;;14.28;81.21
42247;BME280;27913;42.722;23.268;2022-12-11T10:46:47;93034.44;;;14.33;81.59
42247;BME280;27913;42.722;23.268;2022-12-11T10:49:29;93018.56;;;14.33;82.23
42247;BME280;27913;42.722;23.268;2022-12-11T10:51:55;92958.69;;;13.95;81.81
42247;BME280;27913;42.722;23.268;2022-12-11T10:54:39;92966.41;;;14.02;81.95
42247;BME280;27913;42.722;23.268;2022-12-11T10:57:08;93014.66;;;14.41;80.83
42247;BME280;27913;42.722;23.268;2022-12-11T10:59:45;92982.59;;;14.21;81.11
42247;BME280;27913;42.722;23.268;2022-12-11T11:02:21;92981.00;;;14.25;80.43
42247;BME280;27913;42.722;23.268;2022-12-11T11:04:48;92949.50;;;14.03;80.00
42247;BME280;27913;42.722;23.268;2022-12-11T11:07:21;92992.38;;;14.26;79.69
42247;BME280;27913;42.722;23.268;2022-12-11T11:10:03;92997.69;;;14.36;80.18
42247;BME280;27913;42.722;23.268;2022-12-11T11:12:29;92940.19;;;13.95;80.68
42247;BME280;27913;42.722;23.268;2022-12-11T11:17:31;93001.34;;;14.25;81.75
42247;BME280;27913;42.722;23.268;2022-12-11T11:19:59;93000.56;;;14.19;81.94
42247;BME280;27913;42.722;23.268;2022-12-11T11:22:30;92915.00;;;13.67;82.05
42247;BME280;27913;42.722;23.268;2022-12-11T11:24:57;92968.97;;;13.86;82.61
42247;BME280;27913;42.722;23.268;2022-12-11T11:27:27;92995.19;;;13.98;83.33
42247;BME280;27913;42.722;23.268;2022-12-11T11:29:54;93013.44;;;14.05;83.94
42247;BME280;27913;42.722;23.268;2022-12-11T11:32:36;92983.81;;;13.98;83.84
42247;BME280;27913;42.722;23.268;2022-12-11T11:37:40;92966.09;;;13.88;82.96
42247;BME280;27913;42.722;23.268;2022-12-11T11:40:27;92938.81;;;13.77;82.21
42247;BME280;27913;42.722;23.268;2022-12-11T11:43:09;92989.41;;;14.07;82.41
42247;BME280;27913;42.722;23.268;2022-12-11T11:45:52;92990.22;;;14.07;81.98
42247;BME280;27913;42.722;23.268;2022-12-11T11:48:27;92977.47;;;13.99;81.89
42247;BME280;27913;42.722;23.268;2022-12-11T11:50:56;92988.88;;;14.10;82.74
42247;BME280;27913;42.722;23.268;2022-12-11T11:53:31;92983.13;;;14.34;81.86
42247;BME280;27913;42.722;23.268;2022-12-11T11:56:17;92984.19;;;14.22;81.19
42247;BME280;27913;42.722;23.268;2022-12-11T12:01:26;92991.47;;;13.13;81.45
42247;BME280;27913;42.722;23.268;2022-12-11T12:03:52;93001.38;;;12.67;82.44
42247;BME280;27913;42.722;23.268;2022-12-11T12:09:51;92935.81;;;11.54;83.54
42247;BME280;27913;42.722;23.268;2022-12-11T12:17:52;93008.03;;;11.06;84.55
42247;BME280;27913;42.722;23.268;2022-12-11T12:20:24;92999.84;;;10.44;85.06
42247;BME280;27913;42.722;23.268;2022-12-11T12:26:06;93059.28;;;9.80;89.29
42247;BME280;27913;42.722;23.268;2022-12-11T12:28:40;93037.75;;;9.54;93.72
42247;BME280;27913;42.722;23.268;2022-12-11T12:34:19;93046.41;;;8.76;97.70
42247;BME280;27913;42.722;23.268;2022-12-11T12:36:56;93046.69;;;8.37;96.82
42247;BME280;27913;42.722;23.268;2022-12-11T12:42:37;92989.97;;;7.62;98.69
42247;BME280;27913;42.722;23.268;2022-12-11T12:47:40;92994.56;;;7.22;100.00
42247;BME280;27913;42.722;23.268;2022-12-11T12:50:12;93075.94;;;7.58;100.00
42247;BME280;27913;42.722;23.268;2022-12-11T12:52:39;93077.13;;;7.37;100.00
42247;BME280;27913;42.722;23.268;2022-12-11T12:55:20;93046.22;;;7.01;100.00
42247;BME280;27913;42.722;23.268;2022-12-11T12:57:52;93042.53;;;6.84;100.00
42247;BME280;27913;42.722;23.268;2022-12-11T13:00:26;93077.72;;;6.81;100.00
42247;BME280;27913;42.722;23.268;2022-12-11T13:02:52;93108.28;;;6.81;100.00
42247;BME280;27913;42.722;23.268;2022-12-11T13:05:23;93101.81;;;6.51;100.00
42247;BME280;27913;42.722;23.268;2022-12-11T13:07:55;93051.97;;;6.07;100.00
42247;BME280;27913;42.722;23.268;2022-12-11T13:10:23;93081.63;;;6.26;100.00
42247;BME280;27913;42.722;23.268;2022-12-11T13:12:49;93123.97;;;6.35;100.00
42247;BME280;27913;42.722;23.268;2022-12-11T13:15:26;93100.38;;;6.02;100.00
42247;BME280;27913;42.722;23.268;2022-12-11T13:17:52;93057.88;;;5.75;100.00
42247;BME280;27913;42.722;23.268;2022-12-11T13:20:21;93126.06;;;5.99;100.00
42247;BME280;27913;42.722;23.268;2022-12-11T13:23:14;93059.56;;;5.35;100.00
42247;BME280;27913;42.722;23.268;2022-12-11T13:25:47;93120.94;;;5.44;100.00
42247;BME280;27913;42.722;23.268;2022-12-11T13:28:26;93113.69;;;5.40;100.00
42247;BME280;27913;42.722;23.268;2022-12-11T13:31:02;93154.41;;;5.68;100.00
42247;BME280;27913;42.722;23.268;2022-12-11T13:33:29;93191.53;;;5.50;100.00
42247;BME280;27913;42.722;23.268;2022-12-11T13:36:16;93176.25;;;5.47;100.00
42247;BME280;27913;42.722;23.268;2022-12-11T13:38:48;93092.19;;;4.56;100.00
42247;BME280;27913;42.722;23.268;2022-12-11T13:41:17;93106.56;;;4.52;100.00
42247;BME280;27913;42.722;23.268;2022-12-11T13:43:44;93200.03;;;4.89;100.00
42247;BME280;27913;42.722;23.268;2022-12-11T13:46:12;93227.72;;;4.97;100.00
42247;BME280;27913;42.722;23.268;2022-12-11T13:48:45;93203.69;;;5.02;100.00
42247;BME280;27913;42.722;23.268;2022-12-11T13:51:18;93209.06;;;4.93;100.00
42247;BME280;27913;42.722;23.268;2022-12-11T13:53:45;93105.22;;;4.07;100.00
42247;BME280;27913;42.722;23.268;2022-12-11T13:56:19;93165.78;;;4.37;100.00
42247;BME280;27913;42.722;23.268;2022-12-11T13:58:45;93234.72;;;4.90;100.00
42247;BME280;27913;42.722;23.268;2022-12-11T14:01:20;93249.94;;;4.93;100.00
42247;BME280;27913;42.722;23.268;2022-12-11T14:03:58;93194.88;;;4.47;100.00
42247;BME280;27913;42.722;23.268;2022-12-11T14:06:25;93267.75;;;4.82;100.00